Time;durP1;ratioP1;P1;durP2;ratioP2;P2;SDS_P1;SDS_P2;PMS_P1;PMS_P2;Temp;Humidity;BMP_temperature;BMP_pressure;BME280_temperature;BME280_humidity;BME280_pressure;Samples;Min_cycle;Max_cycle;Signal;HPM_P1;HPM_P2
2022/11/16 00:01:16;;;;;;;2.63;1.65;;;21.40;56.40;;;;;;5025822;28;20048;-62
2022/11/16 00:03:42;;;;;;;2.47;1.73;;;21.40;56.40;;;;;;5028382;28;20052;-63
2022/11/16 00:06:09;;;;;;;3.03;2.05;;;21.40;56.40;;;;;;5024001;28;20112;-62
2022/11/16 00:08:43;;;;;;;2.67;1.58;;;21.40;56.50;;;;;;5025623;28;20026;-62
2022/11/16 00:11:11;;;;;;;2.88;1.75;;;21.40;56.50;;;;;;5034665;28;20020;-62
2022/11/16 00:13:38;;;;;;;2.87;1.80;;;21.40;56.50;;;;;;5040794;28;20033;-62
2022/11/16 00:16:05;;;;;;;3.00;1.80;;;21.40;56.50;;;;;;5043485;28;20271;-63
2022/11/16 00:18:31;;;;;;;2.58;1.73;;;21.40;56.50;;;;;;5031485;28;20021;-63
2022/11/16 00:20:57;;;;;;;2.65;1.80;;;21.40;56.50;;;;;;5029674;28;20488;-62
2022/11/16 00:23:23;;;;;;;2.72;1.67;;;21.40;56.50;;;;;;5038547;28;20059;-62
2022/11/16 00:25:49;;;;;;;3.63;1.80;;;21.40;56.50;;;;;;5043580;28;20048;-62
2022/11/16 00:28:15;;;;;;;2.72;1.80;;;21.40;56.50;;;;;;5041595;28;20483;-63
2022/11/16 00:30:41;;;;;;;2.80;1.80;;;21.30;56.50;;;;;;5028326;28;20047;-64
2022/11/16 00:33:08;;;;;;;3.10;1.90;;;21.30;56.50;;;;;;5026948;28;20037;-62
2022/11/16 00:35:38;;;;;;;3.10;2.00;;;21.30;56.50;;;;;;5012098;28;20037;-63
2022/11/16 00:38:05;;;;;;;2.60;1.70;;;21.30;56.50;;;;;;5034217;28;20047;-63
2022/11/16 00:40:30;;;;;;;2.70;1.63;;;21.30;56.50;;;;;;5032339;28;20038;-65
2022/11/16 00:42:56;;;;;;;2.25;1.50;;;21.30;56.60;;;;;;5026588;28;20045;-63
2022/11/16 00:45:21;;;;;;;2.47;1.55;;;21.30;56.50;;;;;;5023160;28;20034;-64
2022/11/16 00:47:47;;;;;;;2.50;1.60;;;21.30;56.50;;;;;;5026280;28;20056;-62
2022/11/16 00:50:13;;;;;;;2.65;1.70;;;21.30;56.50;;;;;;5033857;28;20033;-62
2022/11/16 00:52:38;;;;;;;2.92;1.90;;;21.30;56.50;;;;;;5032084;28;20033;-62
2022/11/16 00:55:04;;;;;;;3.03;1.80;;;21.30;56.60;;;;;;5027752;28;20026;-63
2022/11/16 00:57:30;;;;;;;2.83;1.70;;;21.30;56.60;;;;;;5030948;28;20388;-63
2022/11/16 00:59:55;;;;;;;2.80;2.00;;;21.30;56.60;;;;;;5032153;28;20025;-63
2022/11/16 01:02:21;;;;;;;2.85;1.90;;;21.20;56.60;;;;;;5042414;28;20029;-63
2022/11/16 01:04:47;;;;;;;2.45;1.65;;;21.20;56.60;;;;;;5035746;28;20035;-63
2022/11/16 01:07:13;;;;;;;2.53;1.70;;;21.20;56.60;;;;;;5040013;28;20037;-63
2022/11/16 01:09:38;;;;;;;2.40;1.63;;;21.20;56.60;;;;;;5035854;28;20056;-62
2022/11/16 01:12:11;;;;;;;3.25;1.80;;;21.20;56.60;;;;;;5038423;28;20028;-62
2022/11/16 01:14:40;;;;;;;3.17;1.77;;;21.20;56.60;;;;;;5038127;28;20064;-62
2022/11/16 01:17:06;;;;;;;2.63;1.67;;;21.20;56.60;;;;;;5032234;28;20491;-63
2022/11/16 01:19:32;;;;;;;2.80;1.70;;;21.20;56.60;;;;;;5032997;28;20275;-63
2022/11/16 01:21:58;;;;;;;2.80;1.85;;;21.20;56.60;;;;;;5032430;28;20211;-63
2022/11/16 01:24:25;;;;;;;2.85;1.90;;;21.20;56.60;;;;;;5033871;28;20025;-62
2022/11/16 01:26:55;;;;;;;2.78;1.88;;;21.20;56.70;;;;;;5037990;28;20032;-63
2022/11/16 01:29:23;;;;;;;2.85;1.70;;;21.20;56.60;;;;;;5036698;28;20392;-63
2022/11/16 01:31:48;;;;;;;3.35;1.90;;;21.20;56.70;;;;;;5036408;28;20114;-62
2022/11/16 01:34:14;;;;;;;2.40;1.70;;;21.10;56.60;;;;;;5036768;28;20364;-62
2022/11/16 01:36:40;;;;;;;2.70;1.70;;;21.10;56.70;;;;;;5035776;28;20086;-62
2022/11/16 01:39:08;;;;;;;2.70;1.73;;;21.10;56.70;;;;;;5036384;28;20060;-63
2022/11/16 01:41:34;;;;;;;3.72;1.83;;;21.10;56.60;;;;;;5042059;28;20057;-62
2022/11/16 01:44:03;;;;;;;2.97;2.00;;;21.10;57.20;;;;;;5034485;28;20060;-64
2022/11/16 01:46:30;;;;;;;3.80;1.90;;;21.10;56.70;;;;;;5030379;28;20467;-63
2022/11/16 01:49:11;;;;;;;2.50;1.60;;;21.10;56.70;;;;;;5041493;28;20534;-66
2022/11/16 01:51:38;;;;;;;2.92;1.90;;;21.10;56.70;;;;;;5037744;28;20030;-63
2022/11/16 01:54:08;;;;;;;2.85;1.77;;;21.10;56.70;;;;;;5033539;28;20144;-63
2022/11/16 01:56:36;;;;;;;2.78;1.70;;;21.10;56.70;;;;;;5036977;28;20034;-64
2022/11/16 01:59:02;;;;;;;2.35;1.70;;;21.10;56.70;;;;;;5038315;28;20021;-64
2022/11/16 02:01:28;;;;;;;3.60;1.90;;;21.10;56.90;;;;;;5042129;28;20369;-63
2022/11/16 02:03:53;;;;;;;2.80;1.73;;;21.10;56.70;;;;;;5031204;28;20104;-63
2022/11/16 02:06:31;;;;;;;2.60;1.75;;;21.10;56.70;;;;;;5037228;28;20026;-63
2022/11/16 02:12:04;;;;;;;2.53;1.60;;;21.00;56.70;;;;;;5038403;28;20037;-63
2022/11/16 02:14:41;;;;;;;2.80;1.92;;;21.00;56.70;;;;;;5035975;28;20034;-64
2022/11/16 02:17:25;;;;;;;2.58;1.60;;;21.00;56.70;;;;;;5032605;28;20460;-64
2022/11/16 02:20:20;;;;;;;2.80;1.80;;;21.00;56.70;;;;;;5039888;28;20389;-63
2022/11/16 02:23:09;;;;;;;4.25;2.17;;;21.00;56.70;;;;;;5034031;28;20025;-63
2022/11/16 02:26:01;;;;;;;3.05;2.08;;;21.00;56.70;;;;;;5028829;28;20449;-64
2022/11/16 02:28:41;;;;;;;2.88;1.90;;;21.00;56.70;;;;;;5022213;28;20022;-64
2022/11/16 02:31:11;;;;;;;2.33;1.77;;;21.00;56.70;;;;;;5026768;28;20045;-63
2022/11/16 02:33:40;;;;;;;2.47;1.65;;;21.00;56.70;;;;;;5031091;28;20037;-63
2022/11/16 02:36:10;;;;;;;2.30;1.80;;;21.00;56.70;;;;;;5032211;28;20025;-63
2022/11/16 02:38:39;;;;;;;2.88;1.90;;;21.00;56.70;;;;;;5033109;28;20092;-63
2022/11/16 02:41:10;;;;;;;2.88;2.10;;;21.00;56.70;;;;;;5033396;28;20021;-64
2022/11/16 02:43:44;;;;;;;2.50;1.70;;;21.00;56.70;;;;;;5033325;28;20033;-63
2022/11/16 02:46:18;;;;;;;3.88;1.90;;;21.00;56.70;;;;;;5039079;28;20492;-62
2022/11/16 02:48:50;;;;;;;2.55;1.70;;;21.00;56.70;;;;;;5040919;28;20021;-63
2022/11/16 02:51:17;;;;;;;2.95;1.70;;;21.00;57.20;;;;;;5033983;28;20039;-63
2022/11/16 02:54:01;;;;;;;2.65;1.83;;;21.00;56.70;;;;;;5033640;28;20159;-63
2022/11/16 02:56:28;;;;;;;2.58;1.75;;;21.00;56.70;;;;;;5037434;28;20540;-64
2022/11/16 02:58:56;;;;;;;2.70;1.70;;;21.00;56.70;;;;;;5039777;28;20087;-64
2022/11/16 03:01:33;;;;;;;2.42;1.70;;;21.00;56.70;;;;;;5028739;28;20060;-64
2022/11/16 03:04:10;;;;;;;2.50;1.70;;;21.00;56.70;;;;;;5026500;28;20022;-64
2022/11/16 03:06:38;;;;;;;2.30;1.55;;;20.90;57.20;;;;;;5026235;28;20496;-64
2022/11/16 03:09:13;;;;;;;2.50;1.73;;;20.90;56.70;;;;;;5032497;28;20634;-65
2022/11/16 03:12:00;;;;;;;2.83;1.70;;;20.90;56.70;;;;;;5037568;28;20021;-64
2022/11/16 03:14:29;;;;;;;2.75;1.80;;;20.90;56.70;;;;;;5031271;28;20037;-63
2022/11/16 03:16:59;;;;;;;1.77;1.33;;;20.90;56.70;;;;;;5031864;28;20036;-64
2022/11/16 03:20:08;;;;;;;2.10;1.50;;;20.90;56.70;;;;;;5031087;28;20044;-64
2022/11/16 03:23:08;;;;;;;2.80;1.70;;;20.90;56.70;;;;;;5015915;28;20037;-64
2022/11/16 03:25:45;;;;;;;2.45;1.67;;;20.90;56.70;;;;;;4999463;28;20528;-64
2022/11/16 03:28:18;;;;;;;2.60;2.00;;;20.90;56.70;;;;;;5041686;28;20025;-64
2022/11/16 03:30:51;;;;;;;2.22;1.70;;;20.90;56.70;;;;;;5035834;28;20041;-64
2022/11/16 03:33:28;;;;;;;2.90;1.73;;;20.90;56.60;;;;;;5036685;28;20034;-65
2022/11/16 03:35:56;;;;;;;2.72;1.63;;;20.90;56.70;;;;;;5031524;28;20424;-64
2022/11/16 03:38:25;;;;;;;2.85;1.67;;;20.90;56.60;;;;;;5030469;28;20038;-63
2022/11/16 03:40:50;;;;;;;2.35;1.55;;;20.90;56.60;;;;;;5029249;28;20028;-63
2022/11/16 03:43:19;;;;;;;2.58;1.80;;;20.90;56.60;;;;;;5032063;28;20021;-65
2022/11/16 03:45:45;;;;;;;2.35;1.48;;;20.90;56.60;;;;;;5034889;28;20020;-65
2022/11/16 03:48:12;;;;;;;1.85;1.33;;;20.90;56.60;;;;;;5033010;28;20476;-66
2022/11/16 03:50:39;;;;;;;2.53;1.73;;;20.90;56.60;;;;;;5036802;28;20477;-64
2022/11/16 03:53:05;;;;;;;2.30;1.60;;;20.90;56.60;;;;;;5036898;28;20048;-65
2022/11/16 03:55:31;;;;;;;2.13;1.60;;;20.90;56.60;;;;;;5033243;28;20088;-65
2022/11/16 03:57:56;;;;;;;2.47;1.63;;;20.90;56.60;;;;;;5031105;28;20485;-65
2022/11/16 04:00:22;;;;;;;3.17;1.60;;;20.90;56.60;;;;;;5034787;28;20116;-65
2022/11/16 04:02:47;;;;;;;2.40;1.60;;;20.90;56.60;;;;;;5038775;28;20406;-65
2022/11/16 04:24:56;;;;;;;2.30;1.63;;;20.90;56.70;;;;;;5029123;28;20041;-65
2022/11/16 04:30:10;;;;;;;2.20;1.52;;;20.90;56.60;;;;;;5036702;28;20049;-65
2022/11/16 04:38:04;;;;;;;2.30;1.50;;;20.90;56.70;;;;;;5036225;28;20083;-66
2022/11/16 04:40:30;;;;;;;2.20;1.50;;;20.90;56.70;;;;;;5043441;28;20417;-65
2022/11/16 04:42:57;;;;;;;2.00;1.40;;;20.80;56.60;;;;;;5036135;28;20048;-65
2022/11/16 04:48:10;;;;;;;2.30;1.60;;;20.80;56.70;;;;;;5035656;28;20087;-65
2022/11/16 04:50:36;;;;;;;2.33;1.60;;;20.80;56.70;;;;;;5026274;28;20136;-65
2022/11/16 04:53:03;;;;;;;1.95;1.50;;;20.80;56.70;;;;;;5033820;28;20025;-65
2022/11/16 04:55:28;;;;;;;2.22;1.58;;;20.80;56.70;;;;;;5036122;28;20108;-66
2022/11/16 04:57:54;;;;;;;1.80;1.30;;;20.80;56.70;;;;;;5035196;28;20144;-65
2022/11/16 05:00:20;;;;;;;2.42;1.73;;;20.80;56.70;;;;;;5032899;28;20024;-65
2022/11/16 05:02:46;;;;;;;2.15;1.52;;;20.80;56.70;;;;;;5027805;28;20032;-65
2022/11/16 05:05:12;;;;;;;2.00;1.50;;;20.80;56.70;;;;;;5036121;28;20033;-65
2022/11/16 05:07:38;;;;;;;1.70;1.30;;;20.80;56.70;;;;;;5045379;28;20487;-66
2022/11/16 05:10:05;;;;;;;2.20;1.50;;;20.80;56.70;;;;;;5024718;28;20053;-65
2022/11/16 05:12:31;;;;;;;2.10;1.52;;;20.80;56.80;;;;;;5039426;28;20112;-65
2022/11/16 05:14:57;;;;;;;2.67;1.50;;;20.80;56.80;;;;;;5040946;28;20100;-65
2022/11/16 05:17:24;;;;;;;2.42;1.50;;;20.80;57.30;;;;;;5036154;28;20025;-65
2022/11/16 05:22:35;;;;;;;1.77;1.35;;;20.80;56.80;;;;;;5033966;28;20032;-66
2022/11/16 05:25:01;;;;;;;2.05;1.60;;;20.80;56.80;;;;;;5035341;28;20481;-66
2022/11/16 05:27:28;;;;;;;2.47;1.48;;;20.80;56.80;;;;;;5030296;28;20021;-66
2022/11/16 05:29:54;;;;;;;1.90;1.38;;;20.80;56.80;;;;;;5034908;28;20045;-64
2022/11/16 05:32:21;;;;;;;2.30;1.50;;;20.80;57.30;;;;;;5035714;28;20122;-64
2022/11/16 05:34:47;;;;;;;1.92;1.40;;;20.80;56.80;;;;;;5033496;28;20021;-64
2022/11/16 05:37:13;;;;;;;1.85;1.30;;;20.80;57.40;;;;;;5035092;28;20098;-64
2022/11/16 05:39:39;;;;;;;1.95;1.40;;;20.70;56.80;;;;;;5029525;28;20167;-64
2022/11/16 05:42:05;;;;;;;2.10;1.50;;;20.80;56.90;;;;;;5032562;28;20029;-64
2022/11/16 05:44:31;;;;;;;2.13;1.50;;;20.80;56.90;;;;;;5037834;28;20484;-63
2022/11/16 05:46:57;;;;;;;2.10;1.40;;;20.80;56.90;;;;;;5037866;28;20018;-63
2022/11/16 05:49:23;;;;;;;1.70;1.17;;;20.70;56.90;;;;;;5037743;28;20030;-64
2022/11/16 05:51:49;;;;;;;1.98;1.40;;;20.80;57.00;;;;;;5038743;28;20211;-65
2022/11/16 05:54:20;;;;;;;2.00;1.45;;;20.70;56.90;;;;;;5033035;28;20058;-64
2022/11/16 05:56:47;;;;;;;2.28;1.42;;;20.70;56.90;;;;;;5042085;28;20029;-66
2022/11/16 05:59:14;;;;;;;2.15;1.58;;;20.80;57.00;;;;;;5038124;28;20026;-64
2022/11/16 06:01:41;;;;;;;2.47;1.58;;;20.70;56.90;;;;;;5036602;28;20468;-65
2022/11/16 06:04:07;;;;;;;2.10;1.40;;;20.70;56.90;;;;;;5035786;28;20100;-65
2022/11/16 06:06:32;;;;;;;2.20;1.50;;;20.70;56.90;;;;;;5039349;28;20109;-65
2022/11/16 06:08:58;;;;;;;2.10;1.50;;;20.70;56.90;;;;;;5030699;28;20030;-66
2022/11/16 06:11:23;;;;;;;2.17;1.50;;;20.70;57.00;;;;;;5040254;28;20025;-65
2022/11/16 06:13:49;;;;;;;2.05;1.35;;;20.70;57.00;;;;;;5034978;28;20496;-66
2022/11/16 06:16:15;;;;;;;2.17;1.42;;;20.70;57.00;;;;;;5032123;28;20366;-66
2022/11/16 06:18:43;;;;;;;2.10;1.48;;;20.70;57.00;;;;;;5036289;28;20026;-65
2022/11/16 06:21:10;;;;;;;2.10;1.45;;;20.70;57.00;;;;;;5034666;28;20373;-65
2022/11/16 06:23:36;;;;;;;2.15;1.60;;;20.70;57.00;;;;;;5040719;28;20556;-66
2022/11/16 06:26:03;;;;;;;2.28;1.63;;;20.70;57.00;;;;;;5043627;28;20028;-66
2022/11/16 06:28:29;;;;;;;2.00;1.40;;;20.70;57.00;;;;;;5039547;28;20025;-66
2022/11/16 06:30:54;;;;;;;2.20;1.50;;;20.70;57.00;;;;;;5027249;28;20038;-65
2022/11/16 06:33:20;;;;;;;2.42;1.52;;;20.70;57.00;;;;;;5043890;28;20037;-65
2022/11/16 06:35:46;;;;;;;2.28;1.63;;;20.70;57.00;;;;;;5038674;28;20037;-65
2022/11/16 06:38:17;;;;;;;2.67;1.80;;;20.70;57.40;;;;;;5039836;28;20132;-65
2022/11/16 06:40:44;;;;;;;2.40;1.50;;;20.80;58.30;;;;;;5032135;28;20079;-65
2022/11/16 06:43:10;;;;;;;2.72;1.90;;;20.90;58.10;;;;;;5030752;28;20122;-65
2022/11/16 06:45:35;;;;;;;2.25;1.67;;;21.10;58.30;;;;;;5027536;28;20105;-65
2022/11/16 06:48:01;;;;;;;2.50;1.77;;;21.20;57.70;;;;;;5032380;28;20470;-65
2022/11/16 06:50:26;;;;;;;2.20;1.60;;;21.40;57.70;;;;;;5036797;28;20125;-64
2022/11/16 06:52:52;;;;;;;2.63;1.77;;;21.50;57.50;;;;;;5039549;28;20034;-65
2022/11/16 06:55:18;;;;;;;2.65;1.80;;;21.60;57.40;;;;;;5036655;28;20022;-65
2022/11/16 06:57:45;;;;;;;2.47;1.70;;;21.80;57.30;;;;;;5033425;28;20038;-65
2022/11/16 07:00:11;;;;;;;2.78;1.77;;;22.00;57.00;;;;;;5035347;28;20024;-65
2022/11/16 07:02:38;;;;;;;3.22;1.70;;;22.10;56.40;;;;;;5045147;28;20025;-66
2022/11/16 07:05:05;;;;;;;2.00;1.50;;;22.20;55.80;;;;;;5039397;28;20083;-64
2022/11/16 07:07:30;;;;;;;2.30;1.55;;;22.40;55.70;;;;;;5028387;28;20032;-65
2022/11/16 07:09:56;;;;;;;2.30;1.55;;;22.50;55.60;;;;;;5033389;28;20028;-65
2022/11/16 07:12:22;;;;;;;2.45;1.52;;;22.50;55.40;;;;;;5040376;28;20067;-66
2022/11/16 07:14:47;;;;;;;2.70;1.50;;;22.60;55.30;;;;;;5037489;28;20476;-65
2022/11/16 07:17:13;;;;;;;1.90;1.50;;;22.70;55.30;;;;;;5036694;28;20147;-65
2022/11/16 07:19:39;;;;;;;2.08;1.50;;;22.90;55.20;;;;;;5030841;28;20049;-65
2022/11/16 07:22:05;;;;;;;1.77;1.30;;;23.00;54.70;;;;;;5025708;28;20552;-64
2022/11/16 07:24:31;;;;;;;2.28;1.65;;;23.10;54.40;;;;;;5028464;28;20025;-65
2022/11/16 07:26:56;;;;;;;2.20;1.70;;;23.20;53.90;;;;;;5031060;28;20022;-65
2022/11/16 07:29:23;;;;;;;2.33;1.75;;;23.30;53.70;;;;;;5037002;28;20476;-65
2022/11/16 07:31:49;;;;;;;2.35;1.75;;;23.30;53.60;;;;;;5032612;28;20396;-65
2022/11/16 07:34:14;;;;;;;2.85;1.80;;;23.30;53.50;;;;;;5033444;28;20036;-66
2022/11/16 07:36:40;;;;;;;3.75;2.10;;;23.30;53.80;;;;;;5038880;28;20044;-65
2022/11/16 07:39:08;;;;;;;2.60;1.70;;;23.50;54.20;;;;;;5036398;28;20033;-65
2022/11/16 07:41:34;;;;;;;2.50;1.70;;;23.70;53.40;;;;;;5040409;28;20032;-65
2022/11/16 07:44:00;;;;;;;2.80;1.73;;;23.70;52.80;;;;;;5031630;28;20033;-65
2022/11/16 07:46:26;;;;;;;2.10;1.60;;;23.70;52.70;;;;;;5032838;28;20103;-65
2022/11/16 07:48:52;;;;;;;2.58;1.75;;;23.70;52.70;;;;;;5034856;28;20079;-64
2022/11/16 07:51:18;;;;;;;2.50;1.77;;;23.60;52.90;;;;;;5026113;28;20029;-65
2022/11/16 07:53:45;;;;;;;2.28;1.50;;;23.70;53.10;;;;;;5033860;28;20029;-65
2022/11/16 07:56:11;;;;;;;2.13;1.50;;;23.90;52.90;;;;;;5031337;28;20048;-65
2022/11/16 07:58:38;;;;;;;2.50;1.60;;;24.00;52.40;;;;;;5009647;28;20032;-65
2022/11/16 08:01:10;;;;;;;2.40;1.70;;;24.00;52.20;;;;;;5025878;28;20107;-65
2022/11/16 08:03:36;;;;;;;2.00;1.50;;;24.00;52.10;;;;;;5032336;28;20032;-64
2022/11/16 08:06:05;;;;;;;2.22;1.48;;;24.00;52.10;;;;;;5033904;28;20038;-64
2022/11/16 08:08:32;;;;;;;4.25;1.70;;;24.00;52.30;;;;;;5034757;28;20094;-65
2022/11/16 08:11:02;;;;;;;2.08;1.42;;;24.10;52.40;;;;;;5036749;28;20094;-64
2022/11/16 08:13:30;;;;;;;2.08;1.50;;;24.30;52.20;;;;;;5033296;28;20052;-64
2022/11/16 08:16:08;;;;;;;2.15;1.45;;;24.40;51.80;;;;;;5041341;28;20144;-63
2022/11/16 08:18:34;;;;;;;2.05;1.40;;;24.50;51.70;;;;;;5037275;28;20040;-63
2022/11/16 08:21:01;;;;;;;2.10;1.45;;;24.50;51.80;;;;;;5034139;28;20030;-63
2022/11/16 08:23:27;;;;;;;1.98;1.52;;;24.50;51.60;;;;;;5033399;28;20022;-62
2022/11/16 08:26:02;;;;;;;2.17;1.50;;;24.50;51.70;;;;;;5041275;28;20034;-62
2022/11/16 08:28:29;;;;;;;2.72;1.70;;;24.40;51.50;;;;;;5037591;28;20820;-63
2022/11/16 08:30:55;;;;;;;2.17;1.55;;;24.40;51.60;;;;;;5028928;28;20121;-62
2022/11/16 08:33:23;;;;;;;2.60;1.65;;;24.40;51.50;;;;;;5034972;28;21042;-63
2022/11/16 08:35:51;;;;;;;2.08;1.50;;;24.40;51.50;;;;;;5034410;28;20040;-63
2022/11/16 08:38:17;;;;;;;2.15;1.40;;;24.30;51.40;;;;;;5039815;28;20041;-63
2022/11/16 08:40:43;;;;;;;2.47;1.50;;;24.30;51.40;;;;;;5036848;28;20074;-62
2022/11/16 08:43:09;;;;;;;2.28;1.60;;;24.30;51.50;;;;;;5034143;28;20028;-62
2022/11/16 08:45:36;;;;;;;1.70;1.30;;;24.30;51.60;;;;;;5042605;28;20018;-64
2022/11/16 08:48:01;;;;;;;1.75;1.30;;;24.30;51.70;;;;;;5042394;28;20029;-65
2022/11/16 08:50:27;;;;;;;1.90;1.30;;;24.30;51.90;;;;;;5037660;28;20021;-63
2022/11/16 08:52:52;;;;;;;2.10;1.50;;;24.30;51.70;;;;;;5035156;28;20044;-63
2022/11/16 08:55:18;;;;;;;2.47;1.52;;;24.40;52.20;;;;;;5024795;28;20032;-64
2022/11/16 08:57:44;;;;;;;3.08;1.27;;;24.40;52.20;;;;;;5035976;28;20091;-64
2022/11/16 09:00:11;;;;;;;1.83;1.30;;;24.40;52.00;;;;;;5036522;28;20044;-64
2022/11/16 09:02:37;;;;;;;2.08;1.40;;;24.50;51.80;;;;;;5030963;28;20030;-64
2022/11/16 09:05:04;;;;;;;2.08;1.20;;;24.40;51.70;;;;;;5034662;28;20106;-63
2022/11/16 09:07:29;;;;;;;2.05;1.30;;;24.40;51.70;;;;;;5012090;28;20502;-65
2022/11/16 09:09:55;;;;;;;1.73;1.30;;;24.40;52.00;;;;;;5029011;28;20072;-63
2022/11/16 09:12:21;;;;;;;1.88;1.20;;;24.30;52.00;;;;;;5036772;28;20061;-64
2022/11/16 09:14:46;;;;;;;2.08;1.40;;;24.40;52.30;;;;;;5040472;28;20515;-64
2022/11/16 09:17:12;;;;;;;1.80;1.17;;;24.40;52.20;;;;;;5038448;28;20037;-64
2022/11/16 09:19:38;;;;;;;2.50;1.70;;;24.40;52.20;;;;;;5035948;28;20060;-64
2022/11/16 09:22:03;;;;;;;1.98;1.30;;;24.40;52.10;;;;;;5036727;28;20026;-63
2022/11/16 09:24:29;;;;;;;2.22;1.33;;;24.50;51.90;;;;;;5042778;28;20022;-63
2022/11/16 09:26:59;;;;;;;1.95;1.20;;;24.50;51.80;;;;;;5038804;28;20034;-64
2022/11/16 09:29:26;;;;;;;2.60;1.38;;;24.40;52.20;;;;;;5023600;28;20346;-64
2022/11/16 09:31:52;;;;;;;2.88;1.33;;;24.40;52.50;;;;;;5036324;28;20029;-63
2022/11/16 09:34:18;;;;;;;2.15;1.40;;;24.40;52.50;;;;;;5034142;28;20029;-63
2022/11/16 09:36:43;;;;;;;2.00;1.20;;;24.40;52.10;;;;;;5036773;28;20100;-63
2022/11/16 09:39:11;;;;;;;2.72;1.63;;;24.40;52.50;;;;;;5038207;28;20118;-65
2022/11/16 09:42:12;;;;;;;1.85;1.40;;;24.50;51.80;;;;;;5032985;28;20527;-65
2022/11/16 09:44:44;;;;;;;1.42;1.10;;;24.50;51.70;;;;;;5025863;28;20123;-64
2022/11/16 09:47:21;;;;;;;2.15;1.50;;;24.40;51.90;;;;;;5030830;28;20381;-63
2022/11/16 09:49:52;;;;;;;2.72;1.80;;;24.40;51.20;;;;;;5037650;28;20030;-64
2022/11/16 09:52:39;;;;;;;2.72;1.70;;;24.40;51.00;;;;;;5038755;28;20476;-64
2022/11/16 09:55:33;;;;;;;2.58;1.77;;;24.30;51.00;;;;;;5034625;28;20030;-62
2022/11/16 09:58:03;;;;;;;2.50;1.77;;;24.30;51.00;;;;;;5035217;28;20132;-63
2022/11/16 10:00:29;;;;;;;2.65;1.75;;;24.30;51.00;;;;;;5032157;28;20046;-64
2022/11/16 10:03:04;;;;;;;2.17;1.67;;;24.20;51.00;;;;;;5040459;28;20058;-63
2022/11/16 10:05:38;;;;;;;2.72;1.60;;;24.20;51.10;;;;;;5034940;28;20029;-63
2022/11/16 10:08:42;;;;;;;2.63;1.70;;;24.10;51.20;;;;;;5035781;28;20034;-63
2022/11/16 10:11:27;;;;;;;2.55;1.70;;;24.10;51.30;;;;;;5033614;28;20091;-63
2022/11/16 10:14:23;;;;;;;3.80;1.98;;;24.10;51.40;;;;;;5036747;28;20516;-65
2022/11/16 10:17:17;;;;;;;2.50;1.73;;;24.10;51.40;;;;;;5028172;28;20045;-62
2022/11/16 10:20:18;;;;;;;2.35;1.70;;;24.00;51.40;;;;;;5030299;28;20370;-62
2022/11/16 10:23:13;;;;;;;2.35;1.60;;;24.00;51.50;;;;;;5033816;28;20060;-63
2022/11/16 10:25:54;;;;;;;2.30;1.60;;;24.00;51.60;;;;;;5032186;28;20069;-62
2022/11/16 10:28:52;;;;;;;2.42;1.77;;;23.90;51.60;;;;;;5039898;28;20500;-62
2022/11/16 10:31:56;;;;;;;2.33;1.70;;;23.90;51.70;;;;;;5029145;28;20041;-62
2022/11/16 10:34:27;;;;;;;2.45;1.70;;;23.90;51.70;;;;;;5017266;28;20456;-62
2022/11/16 10:37:02;;;;;;;2.78;1.60;;;23.90;51.80;;;;;;5035920;28;20548;-63
2022/11/16 10:39:31;;;;;;;2.08;1.33;;;23.90;51.80;;;;;;5036129;28;20061;-62
2022/11/16 10:42:02;;;;;;;3.08;1.55;;;23.80;51.90;;;;;;5032630;28;20369;-63
2022/11/16 10:44:45;;;;;;;3.17;1.92;;;23.80;52.00;;;;;;5015163;28;20389;-62
2022/11/16 10:47:34;;;;;;;2.65;1.80;;;23.80;52.00;;;;;;5029571;28;20082;-63
2022/11/16 10:50:03;;;;;;;3.58;1.67;;;23.80;52.10;;;;;;5038487;28;20025;-62
2022/11/16 10:52:28;;;;;;;2.70;1.60;;;23.80;52.10;;;;;;5040734;28;20034;-62
2022/11/16 10:54:54;;;;;;;2.42;1.60;;;23.80;52.10;;;;;;5041607;28;20082;-64
2022/11/16 10:57:22;;;;;;;2.45;1.60;;;23.70;52.20;;;;;;5036399;28;20052;-65
2022/11/16 10:59:57;;;;;;;2.25;1.52;;;23.70;52.20;;;;;;5036436;28;20029;-65
2022/11/16 11:02:35;;;;;;;2.50;1.73;;;23.80;52.30;;;;;;5031301;28;20370;-64
2022/11/16 11:05:01;;;;;;;2.25;1.67;;;23.70;52.30;;;;;;5032387;28;20496;-64
2022/11/16 11:07:32;;;;;;;2.30;1.50;;;23.70;52.30;;;;;;5036171;28;20029;-65
2022/11/16 11:09:58;;;;;;;3.20;1.75;;;23.70;52.40;;;;;;5033178;28;20056;-62
2022/11/16 11:12:37;;;;;;;3.08;1.50;;;23.70;52.50;;;;;;5034701;28;20136;-63
2022/11/16 11:15:25;;;;;;;3.00;1.60;;;23.60;52.80;;;;;;5040094;28;20535;-63
2022/11/16 11:18:12;;;;;;;2.58;1.80;;;23.60;52.80;;;;;;5029001;28;20481;-63
2022/11/16 11:20:40;;;;;;;3.47;1.60;;;23.70;52.90;;;;;;5031294;28;20079;-62
2022/11/16 11:23:17;;;;;;;2.53;1.40;;;23.70;53.50;;;;;;5030109;28;20483;-62
2022/11/16 11:25:49;;;;;;;2.22;1.50;;;23.70;53.00;;;;;;5034627;28;20029;-62
2022/11/16 11:28:26;;;;;;;2.60;1.67;;;23.70;53.00;;;;;;5040887;28;20030;-64
2022/11/16 11:30:55;;;;;;;2.50;1.60;;;23.60;52.90;;;;;;5036134;28;20079;-64
2022/11/16 11:33:22;;;;;;;2.92;1.40;;;23.70;52.90;;;;;;5034931;28;20385;-64
2022/11/16 11:36:08;;;;;;;2.35;1.60;;;23.70;53.10;;;;;;5035859;28;20033;-65
2022/11/16 11:39:13;;;;;;;2.55;1.55;;;23.70;52.90;;;;;;5029565;28;20384;-63
2022/11/16 11:41:42;;;;;;;3.60;1.77;;;23.60;53.10;;;;;;5013819;28;20037;-64
2022/11/16 11:44:19;;;;;;;2.30;1.40;;;23.60;53.10;;;;;;5032486;28;20385;-62
2022/11/16 11:46:55;;;;;;;2.33;1.38;;;23.60;53.10;;;;;;5039302;28;20040;-62
2022/11/16 11:49:31;;;;;;;2.90;1.50;;;23.60;53.10;;;;;;5036693;28;20035;-62
2022/11/16 11:52:06;;;;;;;1.88;1.42;;;23.60;53.20;;;;;;5039621;28;20037;-62
2022/11/16 11:54:36;;;;;;;2.47;1.50;;;23.60;53.20;;;;;;5026393;28;20026;-62
2022/11/16 11:57:07;;;;;;;2.20;1.65;;;23.60;53.30;;;;;;5008211;28;20411;-62
2022/11/16 11:59:33;;;;;;;2.38;1.50;;;23.60;53.30;;;;;;5032785;28;20036;-62
2022/11/16 12:02:35;;;;;;;2.63;1.60;;;23.60;53.40;;;;;;5027822;28;20041;-62
2022/11/16 12:05:19;;;;;;;1.92;1.30;;;23.60;53.60;;;;;;5038803;28;20039;-63
2022/11/16 12:08:17;;;;;;;3.15;1.83;;;23.60;53.70;;;;;;5036612;28;20029;-63
2022/11/16 12:10:58;;;;;;;2.50;1.63;;;23.60;53.60;;;;;;5035683;28;20101;-63
2022/11/16 12:13:29;;;;;;;2.25;1.50;;;23.60;53.50;;;;;;5029215;28;20777;-63
2022/11/16 12:16:16;;;;;;;2.30;1.60;;;23.60;53.30;;;;;;5027834;28;20124;-62
2022/11/16 12:18:48;;;;;;;2.35;1.50;;;23.60;53.30;;;;;;5030802;28;20029;-63
2022/11/16 12:21:32;;;;;;;3.65;1.55;;;23.60;53.30;;;;;;5030234;28;20542;-62
2022/11/16 12:24:14;;;;;;;2.88;2.17;;;23.60;53.40;;;;;;5037177;28;20477;-63
2022/11/16 12:26:57;;;;;;;2.10;1.50;;;23.60;53.50;;;;;;5039084;28;20064;-63
2022/11/16 12:29:43;;;;;;;3.72;1.60;;;23.60;53.50;;;;;;5029007;28;20457;-62
2022/11/16 12:32:36;;;;;;;2.15;1.45;;;23.60;53.50;;;;;;5032126;28;20122;-64
2022/11/16 12:35:26;;;;;;;2.05;1.50;;;23.60;53.60;;;;;;5032943;28;20075;-63
2022/11/16 12:38:08;;;;;;;2.53;1.50;;;23.60;53.60;;;;;;5030450;28;20028;-63
2022/11/16 12:40:52;;;;;;;3.22;1.60;;;23.60;53.60;;;;;;5034228;28;20025;-63
2022/11/16 12:43:32;;;;;;;2.70;1.48;;;23.60;53.70;;;;;;5036113;28;20029;-62
2022/11/16 12:46:35;;;;;;;2.15;1.60;;;23.60;53.80;;;;;;5031193;28;20030;-63
2022/11/16 12:49:31;;;;;;;2.40;1.50;;;23.60;53.80;;;;;;5031985;28;20127;-63
2022/11/16 12:52:36;;;;;;;2.40;1.63;;;23.60;53.70;;;;;;5029659;28;20098;-63
2022/11/16 12:55:13;;;;;;;2.58;1.60;;;23.60;53.80;;;;;;5029297;28;20044;-62
2022/11/16 12:57:46;;;;;;;3.10;1.60;;;23.50;53.80;;;;;;5033351;28;20100;-62
2022/11/16 13:00:17;;;;;;;3.25;1.70;;;23.50;53.80;;;;;;5032624;28;20029;-63
2022/11/16 13:03:08;;;;;;;2.13;1.55;;;23.60;53.90;;;;;;5048811;28;20029;-63
2022/11/16 13:05:52;;;;;;;3.25;1.50;;;23.50;53.80;;;;;;5029123;28;20029;-62
2022/11/16 13:08:27;;;;;;;2.00;1.30;;;23.50;53.80;;;;;;5038715;28;20021;-62
2022/11/16 13:11:00;;;;;;;2.55;1.42;;;23.60;54.00;;;;;;5042019;28;20025;-63
2022/11/16 13:13:30;;;;;;;2.00;1.52;;;23.60;54.00;;;;;;5034182;28;20065;-63
2022/11/16 13:15:58;;;;;;;1.92;1.45;;;23.60;53.90;;;;;;5037486;28;20056;-63
2022/11/16 13:18:24;;;;;;;2.85;1.50;;;23.60;54.00;;;;;;5031996;28;20396;-64
2022/11/16 13:21:03;;;;;;;2.88;1.65;;;23.60;54.00;;;;;;5038797;28;20026;-63
2022/11/16 13:23:52;;;;;;;3.75;2.00;;;23.60;54.00;;;;;;5037611;28;20040;-63
2022/11/16 13:26:48;;;;;;;2.22;1.50;;;23.60;54.10;;;;;;5034571;28;20029;-63
2022/11/16 13:29:55;;;;;;;2.10;1.60;;;23.60;54.10;;;;;;5034880;28;20036;-63
2022/11/16 13:32:43;;;;;;;2.40;1.50;;;23.60;54.00;;;;;;5014087;28;20033;-63
2022/11/16 13:35:15;;;;;;;2.60;1.55;;;23.60;54.00;;;;;;5038665;28;20500;-63
2022/11/16 13:37:41;;;;;;;2.40;1.60;;;23.60;54.10;;;;;;5041601;28;20112;-62
2022/11/16 13:40:10;;;;;;;2.45;1.38;;;23.60;54.10;;;;;;5049394;28;20069;-63
2022/11/16 13:43:08;;;;;;;2.28;1.42;;;23.60;54.20;;;;;;5041151;28;20028;-62
2022/11/16 13:45:53;;;;;;;2.70;1.60;;;23.60;54.10;;;;;;5023836;28;20037;-62
2022/11/16 13:48:21;;;;;;;2.60;1.40;;;23.60;54.10;;;;;;5041098;28;20408;-62